sensor_id;sensor_type;location;lat;lon;timestamp;P1;durP1;ratioP1;P2;durP2;ratioP2
47367;SDS011;34646;47.964;7.982;2022-12-05T00:03:34;48.67;;;21.27;;
47367;SDS011;34646;47.964;7.982;2022-12-05T00:09:35;48.90;;;21.83;;
47367;SDS011;34646;47.964;7.982;2022-12-05T00:15:39;45.40;;;20.00;;
47367;SDS011;34646;47.964;7.982;2022-12-05T00:21:40;43.70;;;19.27;;
47367;SDS011;34646;47.964;7.982;2022-12-05T00:27:41;42.93;;;20.60;;
47367;SDS011;34646;47.964;7.982;2022-12-05T00:33:42;50.40;;;21.03;;
47367;SDS011;34646;47.964;7.982;2022-12-05T00:45:44;38.00;;;17.85;;
47367;SDS011;34646;47.964;7.982;2022-12-05T00:51:44;38.53;;;18.17;;
47367;SDS011;34646;47.964;7.982;2022-12-05T00:57:45;42.77;;;18.70;;
47367;SDS011;34646;47.964;7.982;2022-12-05T01:03:46;42.43;;;19.90;;
47367;SDS011;34646;47.964;7.982;2022-12-05T01:09:47;34.43;;;18.30;;
47367;SDS011;34646;47.964;7.982;2022-12-05T01:15:47;40.73;;;17.80;;
47367;SDS011;34646;47.964;7.982;2022-12-05T01:21:48;37.13;;;17.90;;
47367;SDS011;34646;47.964;7.982;2022-12-05T01:27:49;33.70;;;16.33;;
47367;SDS011;34646;47.964;7.982;2022-12-05T01:33:50;38.17;;;18.53;;
47367;SDS011;34646;47.964;7.982;2022-12-05T01:39:52;38.33;;;16.92;;
47367;SDS011;34646;47.964;7.982;2022-12-05T01:45:52;34.93;;;15.40;;
47367;SDS011;34646;47.964;7.982;2022-12-05T01:51:54;33.47;;;16.63;;
47367;SDS011;34646;47.964;7.982;2022-12-05T01:57:59;32.53;;;16.00;;
47367;SDS011;34646;47.964;7.982;2022-12-05T02:04:01;36.08;;;16.25;;
47367;SDS011;34646;47.964;7.982;2022-12-05T02:10:02;33.60;;;16.20;;
47367;SDS011;34646;47.964;7.982;2022-12-05T02:16:11;34.53;;;15.27;;
47367;SDS011;34646;47.964;7.982;2022-12-05T02:42:38;31.98;;;15.45;;
47367;SDS011;34646;47.964;7.982;2022-12-05T02:48:50;36.05;;;14.75;;
47367;SDS011;34646;47.964;7.982;2022-12-05T02:54:55;34.05;;;15.65;;
47367;SDS011;34646;47.964;7.982;2022-12-05T03:00:56;32.83;;;15.15;;
47367;SDS011;34646;47.964;7.982;2022-12-05T03:13:13;26.30;;;13.35;;
47367;SDS011;34646;47.964;7.982;2022-12-05T03:19:20;26.40;;;13.43;;
47367;SDS011;34646;47.964;7.982;2022-12-05T03:25:29;28.05;;;14.35;;
47367;SDS011;34646;47.964;7.982;2022-12-05T03:31:54;25.67;;;13.18;;
47367;SDS011;34646;47.964;7.982;2022-12-05T03:38:13;28.58;;;13.45;;
47367;SDS011;34646;47.964;7.982;2022-12-05T03:44:30;27.80;;;13.38;;
47367;SDS011;34646;47.964;7.982;2022-12-05T03:50:40;27.85;;;12.95;;
47367;SDS011;34646;47.964;7.982;2022-12-05T03:56:46;27.42;;;13.38;;
47367;SDS011;34646;47.964;7.982;2022-12-05T04:09:12;26.40;;;12.90;;
47367;SDS011;34646;47.964;7.982;2022-12-05T04:15:23;24.40;;;12.05;;
47367;SDS011;34646;47.964;7.982;2022-12-05T04:21:29;24.33;;;12.45;;
47367;SDS011;34646;47.964;7.982;2022-12-05T04:33:58;22.33;;;11.57;;
47367;SDS011;34646;47.964;7.982;2022-12-05T04:40:24;25.60;;;12.43;;
47367;SDS011;34646;47.964;7.982;2022-12-05T04:46:29;23.48;;;12.23;;
47367;SDS011;34646;47.964;7.982;2022-12-05T04:52:29;20.90;;;10.23;;
47367;SDS011;34646;47.964;7.982;2022-12-05T04:58:31;20.80;;;10.65;;
47367;SDS011;34646;47.964;7.982;2022-12-05T05:04:36;22.40;;;10.27;;
47367;SDS011;34646;47.964;7.982;2022-12-05T05:10:48;17.25;;;9.98;;
47367;SDS011;34646;47.964;7.982;2022-12-05T05:17:10;17.65;;;9.43;;
47367;SDS011;34646;47.964;7.982;2022-12-05T05:23:10;16.37;;;8.77;;
47367;SDS011;34646;47.964;7.982;2022-12-05T05:29:11;18.67;;;9.10;;
47367;SDS011;34646;47.964;7.982;2022-12-05T05:35:13;23.70;;;11.90;;
47367;SDS011;34646;47.964;7.982;2022-12-05T05:41:15;19.50;;;9.40;;
47367;SDS011;34646;47.964;7.982;2022-12-05T05:47:20;22.63;;;10.10;;
47367;SDS011;34646;47.964;7.982;2022-12-05T05:53:21;21.57;;;9.00;;
47367;SDS011;34646;47.964;7.982;2022-12-05T05:59:22;15.00;;;8.60;;
47367;SDS011;34646;47.964;7.982;2022-12-05T06:05:22;18.57;;;8.77;;
47367;SDS011;34646;47.964;7.982;2022-12-05T06:11:24;19.70;;;9.80;;
47367;SDS011;34646;47.964;7.982;2022-12-05T06:17:26;24.77;;;11.10;;
47367;SDS011;34646;47.964;7.982;2022-12-05T06:23:26;29.87;;;13.40;;
47367;SDS011;34646;47.964;7.982;2022-12-05T06:29:27;73.47;;;31.57;;
47367;SDS011;34646;47.964;7.982;2022-12-05T06:35:28;66.63;;;28.30;;
47367;SDS011;34646;47.964;7.982;2022-12-05T06:41:28;59.07;;;29.13;;
47367;SDS011;34646;47.964;7.982;2022-12-05T06:47:29;59.17;;;27.63;;
47367;SDS011;34646;47.964;7.982;2022-12-05T06:53:30;62.53;;;28.90;;
47367;SDS011;34646;47.964;7.982;2022-12-05T06:59:31;52.33;;;24.77;;
47367;SDS011;34646;47.964;7.982;2022-12-05T07:05:31;57.67;;;25.37;;
47367;SDS011;34646;47.964;7.982;2022-12-05T07:11:32;55.77;;;26.07;;
47367;SDS011;34646;47.964;7.982;2022-12-05T07:17:34;51.33;;;24.83;;
47367;SDS011;34646;47.964;7.982;2022-12-05T07:23:37;47.72;;;23.60;;
47367;SDS011;34646;47.964;7.982;2022-12-05T07:29:38;52.53;;;24.30;;
47367;SDS011;34646;47.964;7.982;2022-12-05T07:35:39;48.03;;;24.17;;
47367;SDS011;34646;47.964;7.982;2022-12-05T07:41:39;46.53;;;23.10;;
47367;SDS011;34646;47.964;7.982;2022-12-05T07:47:42;49.65;;;24.38;;
47367;SDS011;34646;47.964;7.982;2022-12-05T07:53:42;50.27;;;24.17;;
47367;SDS011;34646;47.964;7.982;2022-12-05T07:59:44;48.42;;;23.90;;
47367;SDS011;34646;47.964;7.982;2022-12-05T08:05:44;45.13;;;23.10;;
47367;SDS011;34646;47.964;7.982;2022-12-05T08:11:45;42.20;;;22.23;;
47367;SDS011;34646;47.964;7.982;2022-12-05T08:17:46;45.93;;;22.87;;
47367;SDS011;34646;47.964;7.982;2022-12-05T08:23:46;51.27;;;23.87;;
47367;SDS011;34646;47.964;7.982;2022-12-05T08:29:47;44.00;;;21.23;;
47367;SDS011;34646;47.964;7.982;2022-12-05T08:35:47;42.37;;;21.30;;
47367;SDS011;34646;47.964;7.982;2022-12-05T08:41:48;45.67;;;21.23;;
47367;SDS011;34646;47.964;7.982;2022-12-05T08:47:49;43.00;;;20.67;;
47367;SDS011;34646;47.964;7.982;2022-12-05T08:53:50;41.77;;;20.73;;
47367;SDS011;34646;47.964;7.982;2022-12-05T08:59:50;43.90;;;21.10;;
47367;SDS011;34646;47.964;7.982;2022-12-05T09:05:51;42.00;;;21.37;;
47367;SDS011;34646;47.964;7.982;2022-12-05T09:11:52;40.00;;;20.60;;
47367;SDS011;34646;47.964;7.982;2022-12-05T09:17:52;43.43;;;20.10;;
47367;SDS011;34646;47.964;7.982;2022-12-05T09:23:53;37.23;;;19.20;;
47367;SDS011;34646;47.964;7.982;2022-12-05T09:29:55;39.05;;;19.45;;
47367;SDS011;34646;47.964;7.982;2022-12-05T09:35:55;39.30;;;21.43;;
47367;SDS011;34646;47.964;7.982;2022-12-05T09:48:12;37.67;;;19.08;;
47367;SDS011;34646;47.964;7.982;2022-12-05T09:54:15;38.60;;;19.50;;
47367;SDS011;34646;47.964;7.982;2022-12-05T10:00:17;38.93;;;19.50;;
47367;SDS011;34646;47.964;7.982;2022-12-05T10:06:20;39.43;;;20.07;;
47367;SDS011;34646;47.964;7.982;2022-12-05T10:12:50;35.83;;;17.25;;
47367;SDS011;34646;47.964;7.982;2022-12-05T10:19:14;38.10;;;18.10;;
47367;SDS011;34646;47.964;7.982;2022-12-05T10:25:21;36.75;;;17.65;;
47367;SDS011;34646;47.964;7.982;2022-12-05T10:31:29;36.42;;;18.17;;
47367;SDS011;34646;47.964;7.982;2022-12-05T10:37:32;35.05;;;17.52;;
47367;SDS011;34646;47.964;7.982;2022-12-05T10:43:34;36.20;;;18.93;;
47367;SDS011;34646;47.964;7.982;2022-12-05T10:49:37;37.25;;;17.88;;
47367;SDS011;34646;47.964;7.982;2022-12-05T10:55:42;30.27;;;15.20;;
47367;SDS011;34646;47.964;7.982;2022-12-05T11:01:52;32.28;;;16.60;;
47367;SDS011;34646;47.964;7.982;2022-12-05T11:07:55;32.60;;;17.33;;
47367;SDS011;34646;47.964;7.982;2022-12-05T11:14:00;35.42;;;17.08;;
47367;SDS011;34646;47.964;7.982;2022-12-05T11:20:37;32.08;;;16.40;;
47367;SDS011;34646;47.964;7.982;2022-12-05T11:26:34;33.10;;;16.77;;
47367;SDS011;34646;47.964;7.982;2022-12-05T11:32:36;29.50;;;15.70;;
47367;SDS011;34646;47.964;7.982;2022-12-05T11:38:37;32.63;;;16.53;;
47367;SDS011;34646;47.964;7.982;2022-12-05T11:44:59;31.02;;;15.77;;
47367;SDS011;34646;47.964;7.982;2022-12-05T11:51:25;31.20;;;16.25;;
47367;SDS011;34646;47.964;7.982;2022-12-05T11:57:39;29.90;;;14.00;;
47367;SDS011;34646;47.964;7.982;2022-12-05T12:03:58;27.17;;;13.05;;
47367;SDS011;34646;47.964;7.982;2022-12-05T12:10:20;35.65;;;12.95;;
47367;SDS011;34646;47.964;7.982;2022-12-05T13:06:31;28.63;;;10.23;;
47367;SDS011;34646;47.964;7.982;2022-12-05T13:12:42;6.10;;;3.47;;
47367;SDS011;34646;47.964;7.982;2022-12-05T13:18:44;15.77;;;6.38;;
47367;SDS011;34646;47.964;7.982;2022-12-05T13:24:46;23.25;;;7.40;;
47367;SDS011;34646;47.964;7.982;2022-12-05T13:30:49;22.27;;;8.48;;
47367;SDS011;34646;47.964;7.982;2022-12-05T13:37:17;30.63;;;10.52;;
47367;SDS011;34646;47.964;7.982;2022-12-05T13:43:41;35.88;;;10.18;;
47367;SDS011;34646;47.964;7.982;2022-12-05T13:49:48;29.10;;;10.45;;
47367;SDS011;34646;47.964;7.982;2022-12-05T14:08:50;27.48;;;9.88;;
47367;SDS011;34646;47.964;7.982;2022-12-05T14:21:00;27.10;;;8.65;;
47367;SDS011;34646;47.964;7.982;2022-12-05T14:27:17;20.63;;;8.85;;
47367;SDS011;34646;47.964;7.982;2022-12-05T14:33:27;27.17;;;8.60;;
47367;SDS011;34646;47.964;7.982;2022-12-05T14:45:37;28.35;;;8.05;;
47367;SDS011;34646;47.964;7.982;2022-12-05T14:51:56;37.95;;;8.38;;
47367;SDS011;34646;47.964;7.982;2022-12-05T14:57:57;37.28;;;7.72;;
47367;SDS011;34646;47.964;7.982;2022-12-05T15:04:02;31.83;;;8.00;;
47367;SDS011;34646;47.964;7.982;2022-12-05T15:10:11;77.57;;;10.52;;
47367;SDS011;34646;47.964;7.982;2022-12-05T15:16:18;48.13;;;9.80;;
47367;SDS011;34646;47.964;7.982;2022-12-05T15:22:21;50.33;;;8.02;;
47367;SDS011;34646;47.964;7.982;2022-12-05T15:28:25;45.80;;;10.63;;
47367;SDS011;34646;47.964;7.982;2022-12-05T15:40:43;40.70;;;11.35;;
47367;SDS011;34646;47.964;7.982;2022-12-05T15:46:50;40.13;;;11.75;;
47367;SDS011;34646;47.964;7.982;2022-12-05T15:59:04;42.92;;;12.63;;
47367;SDS011;34646;47.964;7.982;2022-12-05T16:05:27;45.90;;;13.18;;
47367;SDS011;34646;47.964;7.982;2022-12-05T16:11:34;48.40;;;13.02;;
47367;SDS011;34646;47.964;7.982;2022-12-05T16:17:36;64.30;;;12.03;;
47367;SDS011;34646;47.964;7.982;2022-12-05T16:23:41;66.28;;;10.88;;
47367;SDS011;34646;47.964;7.982;2022-12-05T16:29:43;67.13;;;10.85;;
47367;SDS011;34646;47.964;7.982;2022-12-05T16:41:45;54.92;;;13.95;;
47367;SDS011;34646;47.964;7.982;2022-12-05T16:47:59;61.75;;;13.07;;
47367;SDS011;34646;47.964;7.982;2022-12-05T16:54:00;81.60;;;14.70;;
47367;SDS011;34646;47.964;7.982;2022-12-05T17:00:01;59.13;;;13.53;;
47367;SDS011;34646;47.964;7.982;2022-12-05T17:06:05;43.00;;;12.95;;
47367;SDS011;34646;47.964;7.982;2022-12-05T17:12:10;53.23;;;13.47;;
47367;SDS011;34646;47.964;7.982;2022-12-05T17:18:18;61.60;;;11.57;;
47367;SDS011;34646;47.964;7.982;2022-12-05T17:24:20;38.20;;;11.27;;
47367;SDS011;34646;47.964;7.982;2022-12-05T17:30:21;43.85;;;12.00;;
47367;SDS011;34646;47.964;7.982;2022-12-05T17:36:22;44.87;;;15.37;;
47367;SDS011;34646;47.964;7.982;2022-12-05T17:42:23;41.30;;;19.50;;
47367;SDS011;34646;47.964;7.982;2022-12-05T17:48:26;43.92;;;21.10;;
47367;SDS011;34646;47.964;7.982;2022-12-05T17:54:26;74.77;;;23.60;;
47367;SDS011;34646;47.964;7.982;2022-12-05T18:00:27;67.80;;;27.57;;
47367;SDS011;34646;47.964;7.982;2022-12-05T18:06:27;93.10;;;31.73;;
47367;SDS011;34646;47.964;7.982;2022-12-05T18:12:29;96.82;;;37.78;;
47367;SDS011;34646;47.964;7.982;2022-12-05T18:18:30;79.07;;;37.00;;
47367;SDS011;34646;47.964;7.982;2022-12-05T18:24:30;89.27;;;37.43;;
47367;SDS011;34646;47.964;7.982;2022-12-05T18:30:32;72.68;;;37.10;;
47367;SDS011;34646;47.964;7.982;2022-12-05T18:36:33;67.63;;;35.23;;
47367;SDS011;34646;47.964;7.982;2022-12-05T18:42:34;100.00;;;37.77;;
47367;SDS011;34646;47.964;7.982;2022-12-05T18:54:36;87.15;;;37.90;;
47367;SDS011;34646;47.964;7.982;2022-12-05T19:00:37;70.97;;;35.13;;
47367;SDS011;34646;47.964;7.982;2022-12-05T19:12:40;63.75;;;30.67;;
47367;SDS011;34646;47.964;7.982;2022-12-05T19:18:41;59.10;;;31.77;;
47367;SDS011;34646;47.964;7.982;2022-12-05T19:24:42;68.23;;;30.63;;
47367;SDS011;34646;47.964;7.982;2022-12-05T19:30:42;52.83;;;28.67;;
47367;SDS011;34646;47.964;7.982;2022-12-05T19:36:44;50.20;;;26.77;;
47367;SDS011;34646;47.964;7.982;2022-12-05T19:42:45;48.55;;;23.48;;
47367;SDS011;34646;47.964;7.982;2022-12-05T19:48:46;40.20;;;23.77;;
47367;SDS011;34646;47.964;7.982;2022-12-05T19:54:47;45.72;;;21.50;;
47367;SDS011;34646;47.964;7.982;2022-12-05T20:00:48;43.53;;;21.23;;
47367;SDS011;34646;47.964;7.982;2022-12-05T20:06:51;33.13;;;20.73;;
47367;SDS011;34646;47.964;7.982;2022-12-05T20:12:52;33.43;;;20.93;;
47367;SDS011;34646;47.964;7.982;2022-12-05T20:18:53;42.17;;;18.70;;
47367;SDS011;34646;47.964;7.982;2022-12-05T20:24:57;37.38;;;19.05;;
47367;SDS011;34646;47.964;7.982;2022-12-05T20:31:04;33.97;;;18.93;;
47367;SDS011;34646;47.964;7.982;2022-12-05T20:43:10;28.23;;;17.50;;
47367;SDS011;34646;47.964;7.982;2022-12-05T20:49:11;35.17;;;18.33;;
47367;SDS011;34646;47.964;7.982;2022-12-05T20:55:12;25.17;;;16.85;;
47367;SDS011;34646;47.964;7.982;2022-12-05T21:01:13;30.50;;;17.23;;
47367;SDS011;34646;47.964;7.982;2022-12-05T21:07:15;30.83;;;18.85;;
47367;SDS011;34646;47.964;7.982;2022-12-05T21:13:16;28.53;;;16.67;;
47367;SDS011;34646;47.964;7.982;2022-12-05T21:19:18;27.17;;;16.13;;
47367;SDS011;34646;47.964;7.982;2022-12-05T21:25:20;30.80;;;17.50;;
47367;SDS011;34646;47.964;7.982;2022-12-05T21:31:24;22.00;;;15.57;;
47367;SDS011;34646;47.964;7.982;2022-12-05T21:37:28;27.52;;;15.02;;
47367;SDS011;34646;47.964;7.982;2022-12-05T21:43:29;25.43;;;15.90;;
47367;SDS011;34646;47.964;7.982;2022-12-05T21:49:29;29.08;;;14.95;;
47367;SDS011;34646;47.964;7.982;2022-12-05T21:55:30;25.37;;;15.70;;
47367;SDS011;34646;47.964;7.982;2022-12-05T22:01:31;23.30;;;14.53;;
47367;SDS011;34646;47.964;7.982;2022-12-05T22:07:32;25.00;;;15.17;;
47367;SDS011;34646;47.964;7.982;2022-12-05T22:13:32;23.07;;;15.13;;
47367;SDS011;34646;47.964;7.982;2022-12-05T22:19:33;29.77;;;15.60;;
47367;SDS011;34646;47.964;7.982;2022-12-05T22:25:34;20.77;;;14.40;;
47367;SDS011;34646;47.964;7.982;2022-12-05T22:31:34;22.60;;;14.20;;
47367;SDS011;34646;47.964;7.982;2022-12-05T22:37:35;19.57;;;14.23;;
47367;SDS011;34646;47.964;7.982;2022-12-05T22:43:36;22.90;;;14.67;;
47367;SDS011;34646;47.964;7.982;2022-12-05T22:55:38;20.20;;;13.35;;
47367;SDS011;34646;47.964;7.982;2022-12-05T23:01:39;22.27;;;14.43;;
47367;SDS011;34646;47.964;7.982;2022-12-05T23:07:39;18.53;;;12.80;;
47367;SDS011;34646;47.964;7.982;2022-12-05T23:13:40;19.20;;;13.37;;
47367;SDS011;34646;47.964;7.982;2022-12-05T23:19:41;20.85;;;13.55;;
47367;SDS011;34646;47.964;7.982;2022-12-05T23:25:42;21.00;;;13.70;;
47367;SDS011;34646;47.964;7.982;2022-12-05T23:31:43;23.43;;;13.63;;
47367;SDS011;34646;47.964;7.982;2022-12-05T23:37:43;21.57;;;13.20;;
47367;SDS011;34646;47.964;7.982;2022-12-05T23:43:48;25.02;;;13.77;;
47367;SDS011;34646;47.964;7.982;2022-12-05T23:49:50;17.95;;;12.95;;
47367;SDS011;34646;47.964;7.982;2022-12-05T23:55:50;19.57;;;12.97;;
